Terminal Aerodrome Forecast
Issued by NWS Corpus Christi, TX

Home | Current Version | Previous Version | Text Only | Print | Product List | Glossary On
Versions: 1 2 3 4 5 6 7 8 9 10 11 12 13 14 15 16 17 18
000
FTUS44 KCRP 260520
TAFVCT
TAF
KVCT 260520Z 2606/2706 10003KT P6SM FEW020
     FM261000 VRB03KT 5SM BR VCSH SCT012
      TEMPO 2610/2614 -SHRA BKN012
     FM261400 06004KT P6SM VCSH BKN025
     FM261800 11008KT P6SM VCTS BKN040CB PROB30 2619/2623 VRB20G30KT
      3SM TSRA OVC035CB
     FM262300 11010G16KT P6SM VCTS SCT050CB BKN250
     FM270200 VRB04KT P6SM SCT015 BKN250=

USA.gov is the U.S. government's official web portal to all federal, state and local government web resources and services.